Time;durP1;ratioP1;P1;durP2;ratioP2;P2;SDS_P1;SDS_P2;PMS_P1;PMS_P2;Temp;Humidity;BMP_temperature;BMP_pressure;BME280_temperature;BME280_humidity;BME280_pressure;Samples;Min_cycle;Max_cycle;Signal;HPM_P1;HPM_P2
2022/11/28 00:01:40;;;;;;;10.07;5.93;;;;;;;;;;5011523;28;20660;-65
2022/11/28 00:04:05;;;;;;;10.83;5.80;;;;;;;;;;5012095;28;20240;-65
2022/11/28 00:06:31;;;;;;;9.93;5.87;;;;;;;;;;5012432;28;20561;-65
2022/11/28 00:08:56;;;;;;;8.25;5.65;;;;;;;;;;5011873;28;20213;-65
2022/11/28 00:11:22;;;;;;;10.48;6.05;;;;;;;;;;5010736;28;20217;-65
2022/11/28 00:13:47;;;;;;;10.05;5.65;;;;;;;;;;5012251;28;20212;-65
2022/11/28 00:16:13;;;;;;;9.48;5.95;;;;;;;;;;4997600;28;20248;-65
2022/11/28 00:18:39;;;;;;;10.33;5.97;;;;;;;;;;4992984;28;20647;-65
2022/11/28 00:21:05;;;;;;;9.45;6.20;;;;;;;;;;4992312;28;20741;-66
2022/11/28 00:23:30;;;;;;;8.10;5.43;;;;;;;;;;4990752;28;20283;-65
2022/11/28 00:25:57;;;;;;;8.90;6.00;;;;;;;;;;4993009;28;20570;-65
2022/11/28 00:28:23;;;;;;;9.10;5.75;;;;;;;;;;4992028;28;20668;-65
2022/11/28 00:30:48;;;;;;;8.40;5.40;;;;;;;;;;4991992;28;20213;-65
2022/11/28 00:33:13;;;;;;;8.97;6.20;;;;;;;;;;4992161;28;20301;-65
2022/11/28 00:35:39;;;;;;;9.53;5.83;;;;;;;;;;4992831;28;20225;-65
2022/11/28 00:38:04;;;;;;;9.57;5.83;;;;;;;;;;4991339;28;20217;-65
2022/11/28 00:40:29;;;;;;;10.63;6.00;;;;;;;;;;5005420;28;20220;-65
2022/11/28 00:42:54;;;;;;;9.70;5.53;;;;;;;;;;5011985;28;20216;-65
2022/11/28 00:45:20;;;;;;;11.02;6.10;;;;;;;;;;5007435;28;20225;-65
2022/11/28 00:47:47;;;;;;;10.43;6.35;;;;;;;;;;4992668;28;20216;-65
2022/11/28 00:50:12;;;;;;;8.37;5.50;;;;;;;;;;4992412;28;20311;-65
2022/11/28 00:52:37;;;;;;;12.77;6.20;;;;;;;;;;4991747;28;20618;-65
2022/11/28 00:55:02;;;;;;;12.15;5.97;;;;;;;;;;4992220;28;20296;-65
2022/11/28 00:57:28;;;;;;;10.50;6.18;;;;;;;;;;4992141;28;20221;-65
2022/11/28 00:59:53;;;;;;;11.93;6.65;;;;;;;;;;4991797;28;20268;-66
2022/11/28 01:02:18;;;;;;;10.82;5.85;;;;;;;;;;4993644;28;20223;-65
2022/11/28 01:04:43;;;;;;;8.67;5.90;;;;;;;;;;4995345;28;20229;-65
2022/11/28 01:07:09;;;;;;;9.90;6.35;;;;;;;;;;4995225;28;20228;-65
2022/11/28 01:09:34;;;;;;;11.50;6.45;;;;;;;;;;4995929;28;20224;-65
2022/11/28 01:12:00;;;;;;;13.10;5.90;;;;;;;;;;4994893;28;20644;-65
2022/11/28 01:14:25;;;;;;;10.80;6.00;;;;;;;;;;4976144;28;20218;-65
2022/11/28 01:16:50;;;;;;;11.40;5.70;;;;;;;;;;4993663;28;20626;-65
2022/11/28 01:19:16;;;;;;;9.15;5.70;;;;;;;;;;4994838;28;20217;-65
2022/11/28 01:21:41;;;;;;;8.63;5.60;;;;;;;;;;4995588;28;20236;-65
2022/11/28 01:24:06;;;;;;;8.13;5.15;;;;;;;;;;4995107;28;20233;-65
2022/11/28 01:26:32;;;;;;;11.20;5.97;;;;;;;;;;5009964;28;20232;-65
2022/11/28 01:28:58;;;;;;;8.48;5.70;;;;;;;;;;4995352;28;20244;-65
2022/11/28 01:31:24;;;;;;;12.50;5.97;;;;;;;;;;4995017;28;20322;-65
2022/11/28 01:33:49;;;;;;;7.50;5.32;;;;;;;;;;4994776;28;20371;-65
2022/11/28 01:36:14;;;;;;;9.05;5.78;;;;;;;;;;4995123;28;20585;-65
2022/11/28 01:38:40;;;;;;;9.63;5.93;;;;;;;;;;4995394;28;20686;-65
2022/11/28 01:41:05;;;;;;;10.73;5.95;;;;;;;;;;4984831;28;20754;-65
2022/11/28 01:43:30;;;;;;;8.05;5.63;;;;;;;;;;4974551;28;20214;-65
2022/11/28 01:45:56;;;;;;;9.10;5.88;;;;;;;;;;4983712;28;20275;-65
2022/11/28 01:48:24;;;;;;;10.05;6.00;;;;;;;;;;4994104;28;20691;-65
2022/11/28 01:50:49;;;;;;;10.60;5.83;;;;;;;;;;4995197;28;20300;-65
2022/11/28 01:53:15;;;;;;;8.30;5.22;;;;;;;;;;5003485;28;20295;-65
2022/11/28 01:55:43;;;;;;;9.38;5.75;;;;;;;;;;5004477;28;20224;-65
2022/11/28 01:58:08;;;;;;;9.55;5.80;;;;;;;;;;5001142;28;20217;-65
2022/11/28 02:00:34;;;;;;;10.07;6.00;;;;;;;;;;4994491;28;20237;-65
2022/11/28 02:03:00;;;;;;;9.05;5.70;;;;;;;;;;4992769;28;20213;-65
2022/11/28 02:05:25;;;;;;;8.73;5.93;;;;;;;;;;4965905;28;21532;-65
2022/11/28 02:07:50;;;;;;;7.88;5.35;;;;;;;;;;4974371;28;20316;-65
2022/11/28 02:10:22;;;;;;;8.63;5.65;;;;;;;;;;4974932;28;20214;-65
2022/11/28 02:12:50;;;;;;;9.85;5.95;;;;;;;;;;4973468;28;20301;-65
2022/11/28 02:15:16;;;;;;;9.98;6.00;;;;;;;;;;4973460;28;20210;-65
2022/11/28 02:17:57;;;;;;;9.45;5.30;;;;;;;;;;4975307;28;20263;-65
2022/11/28 02:20:25;;;;;;;11.25;5.68;;;;;;;;;;4974786;28;20219;-65
2022/11/28 02:22:58;;;;;;;8.13;4.93;;;;;;;;;;4973043;28;20218;-65
2022/11/28 02:25:36;;;;;;;8.90;5.32;;;;;;;;;;4973328;28;20225;-65
2022/11/28 02:28:18;;;;;;;10.48;6.05;;;;;;;;;;4973405;28;20218;-65
2022/11/28 02:30:59;;;;;;;9.80;5.77;;;;;;;;;;4972783;28;20304;-65
2022/11/28 02:33:34;;;;;;;9.07;5.88;;;;;;;;;;4974461;28;20252;-65
2022/11/28 02:36:02;;;;;;;8.70;5.97;;;;;;;;;;4972969;28;20583;-65
2022/11/28 02:38:46;;;;;;;10.23;6.13;;;;;;;;;;4984590;28;20271;-65
2022/11/28 02:41:12;;;;;;;13.23;5.97;;;;;;;;;;5003983;28;20220;-65
2022/11/28 02:43:51;;;;;;;10.38;5.80;;;;;;;;;;5012785;28;20742;-65
2022/11/28 02:46:19;;;;;;;10.70;6.25;;;;;;;;;;4982374;28;20213;-65
2022/11/28 02:48:47;;;;;;;10.20;5.30;;;;;;;;;;4973471;28;20214;-65
2022/11/28 02:51:15;;;;;;;8.90;5.60;;;;;;;;;;4973577;28;20222;-65
2022/11/28 02:53:41;;;;;;;7.55;4.90;;;;;;;;;;4973290;28;20669;-65
2022/11/28 02:56:07;;;;;;;10.57;5.22;;;;;;;;;;4972867;28;20225;-65
2022/11/28 02:58:33;;;;;;;10.52;5.70;;;;;;;;;;4997744;28;20664;-66
2022/11/28 03:00:58;;;;;;;9.68;5.47;;;;;;;;;;4997184;28;20236;-65
2022/11/28 03:03:35;;;;;;;10.05;5.40;;;;;;;;;;4993370;28;20240;-65
2022/11/28 03:06:08;;;;;;;8.87;5.53;;;;;;;;;;4991678;28;20229;-65
2022/11/28 03:08:41;;;;;;;9.90;5.38;;;;;;;;;;4993295;28;20213;-65
2022/11/28 03:11:14;;;;;;;8.02;5.45;;;;;;;;;;4991761;28;20306;-65
2022/11/28 03:13:41;;;;;;;9.05;5.15;;;;;;;;;;4992503;28;20213;-65
2022/11/28 03:16:06;;;;;;;9.57;5.28;;;;;;;;;;4989564;28;20240;-65
2022/11/28 03:18:33;;;;;;;6.97;4.70;;;;;;;;;;4992398;28;20747;-63
2022/11/28 03:21:00;;;;;;;9.23;4.95;;;;;;;;;;4984354;28;20225;-66
2022/11/28 03:23:26;;;;;;;7.57;4.57;;;;;;;;;;4988098;28;20205;-65
2022/11/28 03:25:52;;;;;;;6.35;4.05;;;;;;;;;;4981066;28;20332;-65
2022/11/28 03:28:18;;;;;;;9.68;5.25;;;;;;;;;;4964745;28;20214;-65
2022/11/28 03:30:45;;;;;;;8.38;4.93;;;;;;;;;;4964182;28;21223;-65
2022/11/28 03:33:11;;;;;;;8.13;4.90;;;;;;;;;;4981448;28;20224;-66
2022/11/28 03:35:37;;;;;;;7.95;4.60;;;;;;;;;;4976821;28;20205;-66
2022/11/28 03:38:05;;;;;;;7.60;4.65;;;;;;;;;;4965322;28;20782;-66
2022/11/28 03:40:32;;;;;;;7.33;4.80;;;;;;;;;;4960447;28;20213;-66
2022/11/28 03:42:59;;;;;;;9.55;5.40;;;;;;;;;;4970398;28;20210;-66
2022/11/28 03:45:25;;;;;;;7.47;5.78;;;;;;;;;;4977406;28;20225;-66
2022/11/28 03:47:56;;;;;;;10.40;6.65;;;;;;;;;;4988555;28;20244;-66
2022/11/28 03:50:24;;;;;;;9.70;6.20;;;;;;;;;;4990677;28;20291;-66
2022/11/28 03:52:55;;;;;;;13.10;6.85;;;;;;;;;;4981757;28;20221;-66
2022/11/28 03:55:20;;;;;;;11.93;7.87;;;;;;;;;;4980240;28;20244;-66
2022/11/28 03:57:47;;;;;;;11.52;6.40;;;;;;;;;;4969963;28;20584;-66
2022/11/28 04:00:13;;;;;;;10.32;6.93;;;;;;;;;;4973089;28;20327;-66
2022/11/28 04:02:43;;;;;;;11.00;6.18;;;;;;;;;;4973870;28;20830;-66
2022/11/28 04:05:16;;;;;;;10.95;6.90;;;;;;;;;;4976442;28;20233;-66
2022/11/28 04:07:51;;;;;;;11.32;6.53;;;;;;;;;;4980867;28;20224;-66
2022/11/28 04:10:16;;;;;;;11.95;7.03;;;;;;;;;;4981007;28;20694;-66
2022/11/28 04:12:47;;;;;;;9.65;6.72;;;;;;;;;;4982904;28;20224;-66
2022/11/28 04:15:20;;;;;;;10.33;7.40;;;;;;;;;;4977302;28;20206;-66
2022/11/28 04:17:50;;;;;;;13.17;6.90;;;;;;;;;;4980810;28;20703;-66
2022/11/28 04:20:27;;;;;;;12.47;7.23;;;;;;;;;;4979182;28;20687;-66
2022/11/28 04:22:54;;;;;;;11.15;6.80;;;;;;;;;;4974365;28;20223;-66
2022/11/28 04:25:19;;;;;;;14.40;7.50;;;;;;;;;;4972664;28;20303;-66
2022/11/28 04:27:47;;;;;;;14.05;8.82;;;;;;;;;;4977071;28;20205;-66
2022/11/28 04:30:12;;;;;;;14.68;8.25;;;;;;;;;;4964612;28;20237;-66
2022/11/28 04:32:38;;;;;;;13.80;8.57;;;;;;;;;;4963471;28;20244;-66
2022/11/28 04:35:06;;;;;;;11.45;8.00;;;;;;;;;;4980392;28;20292;-65
2022/11/28 04:37:31;;;;;;;14.90;8.57;;;;;;;;;;4983084;28;20228;-66
2022/11/28 04:39:56;;;;;;;12.10;8.57;;;;;;;;;;4981762;28;20214;-66
2022/11/28 04:42:25;;;;;;;14.63;10.10;;;;;;;;;;4982954;28;20319;-66
2022/11/28 04:44:51;;;;;;;12.07;8.43;;;;;;;;;;4978334;28;20302;-66
2022/11/28 04:47:17;;;;;;;12.75;7.93;;;;;;;;;;4972726;28;21243;-66
2022/11/28 04:49:42;;;;;;;12.32;7.75;;;;;;;;;;4959438;28;20769;-66
2022/11/28 04:52:09;;;;;;;11.48;7.68;;;;;;;;;;4983142;28;20266;-66
2022/11/28 04:54:40;;;;;;;13.77;8.00;;;;;;;;;;4984922;28;20236;-66
2022/11/28 04:57:13;;;;;;;11.07;7.25;;;;;;;;;;4980336;28;20605;-66
2022/11/28 04:59:38;;;;;;;10.10;6.90;;;;;;;;;;4984422;28;20675;-66
2022/11/28 05:02:03;;;;;;;9.02;6.45;;;;;;;;;;4984233;28;20689;-66
2022/11/28 05:04:29;;;;;;;11.68;6.57;;;;;;;;;;4983752;28;20234;-66
2022/11/28 05:07:01;;;;;;;9.65;6.68;;;;;;;;;;4977360;28;20319;-66
2022/11/28 05:09:26;;;;;;;9.45;6.18;;;;;;;;;;4985905;28;20642;-67
2022/11/28 05:11:52;;;;;;;10.25;5.93;;;;;;;;;;4980685;28;20956;-65
2022/11/28 05:14:17;;;;;;;9.20;6.35;;;;;;;;;;4961674;28;20210;-66
2022/11/28 05:16:43;;;;;;;9.27;6.60;;;;;;;;;;4969266;28;20674;-65
2022/11/28 05:19:08;;;;;;;10.00;6.78;;;;;;;;;;4965242;28;20272;-65
2022/11/28 05:21:33;;;;;;;9.90;7.05;;;;;;;;;;4965969;28;20635;-65
2022/11/28 05:23:58;;;;;;;10.05;6.65;;;;;;;;;;4966421;28;20272;-66
2022/11/28 05:26:25;;;;;;;8.48;6.57;;;;;;;;;;4965040;28;20290;-65
2022/11/28 05:28:50;;;;;;;9.30;6.18;;;;;;;;;;4978516;28;20225;-66
2022/11/28 05:31:16;;;;;;;10.35;7.53;;;;;;;;;;4958354;28;20209;-65
2022/11/28 05:33:41;;;;;;;10.43;6.80;;;;;;;;;;4957444;28;20249;-67
2022/11/28 05:36:07;;;;;;;10.65;7.15;;;;;;;;;;4958110;28;20654;-66
2022/11/28 05:38:32;;;;;;;8.63;5.95;;;;;;;;;;4983489;28;20236;-66
2022/11/28 05:40:58;;;;;;;9.10;6.30;;;;;;;;;;4968714;28;20682;-66
2022/11/28 05:43:23;;;;;;;10.00;6.90;;;;;;;;;;4965388;28;20277;-65
2022/11/28 05:45:49;;;;;;;10.20;7.07;;;;;;;;;;4966163;28;21085;-66
2022/11/28 05:48:14;;;;;;;8.97;6.37;;;;;;;;;;4964858;28;20226;-65
2022/11/28 05:50:39;;;;;;;9.82;6.68;;;;;;;;;;4966137;28;20241;-66
2022/11/28 05:53:05;;;;;;;9.23;6.20;;;;;;;;;;4958154;28;20273;-66
2022/11/28 05:55:30;;;;;;;8.73;6.43;;;;;;;;;;4955360;28;20261;-65
2022/11/28 05:57:55;;;;;;;7.82;5.95;;;;;;;;;;4958171;28;20222;-66
2022/11/28 06:00:21;;;;;;;8.43;5.80;;;;;;;;;;4960160;28;20328;-66
2022/11/28 06:02:46;;;;;;;8.70;5.87;;;;;;;;;;4965983;28;20674;-65
2022/11/28 06:05:11;;;;;;;8.57;5.40;;;;;;;;;;4964617;28;20345;-66
2022/11/28 06:07:36;;;;;;;7.10;5.03;;;;;;;;;;4963734;28;20218;-66
2022/11/28 06:10:02;;;;;;;8.32;5.72;;;;;;;;;;4965056;28;20361;-66
2022/11/28 06:12:27;;;;;;;7.93;5.18;;;;;;;;;;4966037;28;20303;-66
2022/11/28 06:14:53;;;;;;;7.65;4.70;;;;;;;;;;4962279;28;20736;-65
2022/11/28 06:17:18;;;;;;;8.03;5.33;;;;;;;;;;4976457;28;20536;-66
2022/11/28 06:19:43;;;;;;;8.52;5.20;;;;;;;;;;4976289;28;20278;-65
2022/11/28 06:22:08;;;;;;;9.97;5.30;;;;;;;;;;4977671;28;20213;-66
2022/11/28 06:24:34;;;;;;;7.80;5.37;;;;;;;;;;4978929;28;20591;-66
2022/11/28 06:26:59;;;;;;;6.93;4.73;;;;;;;;;;4965325;28;20222;-66
2022/11/28 06:29:24;;;;;;;7.60;4.93;;;;;;;;;;4970909;28;20772;-66
2022/11/28 06:31:50;;;;;;;8.07;4.90;;;;;;;;;;4965181;28;20587;-66
2022/11/28 06:34:15;;;;;;;8.70;6.20;;;;;;;;;;4964995;28;20278;-66
2022/11/28 06:36:40;;;;;;;9.45;5.85;;;;;;;;;;4963627;28;20681;-66
2022/11/28 06:39:06;;;;;;;7.38;5.13;;;;;;;;;;4955780;28;20218;-66
2022/11/28 06:41:31;;;;;;;8.50;5.50;;;;;;;;;;4956958;28;20323;-66
2022/11/28 06:43:56;;;;;;;8.20;5.30;;;;;;;;;;4956683;28;20210;-66
2022/11/28 06:46:22;;;;;;;7.72;5.28;;;;;;;;;;4963886;28;20234;-66
2022/11/28 06:48:47;;;;;;;9.40;6.90;;;;;;;;;;4963786;28;20248;-66
2022/11/28 06:51:13;;;;;;;9.85;6.97;;;;;;;;;;4961893;28;20206;-65
2022/11/28 06:53:38;;;;;;;9.75;7.20;;;;;;;;;;4965239;28;20276;-66
2022/11/28 06:56:07;;;;;;;12.23;8.90;;;;;;;;;;4963024;28;20217;-66
2022/11/28 06:58:32;;;;;;;15.02;11.02;;;;;;;;;;4967462;28;20257;-65
2022/11/28 07:01:03;;;;;;;8.40;6.43;;;;;;;;;;4959438;28;20245;-66
2022/11/28 07:03:28;;;;;;;8.93;6.67;;;;;;;;;;4994260;28;20220;-65
2022/11/28 07:05:54;;;;;;;10.18;6.95;;;;;;;;;;4994702;28;20536;-65
2022/11/28 07:08:19;;;;;;;8.35;6.38;;;;;;;;;;5000359;28;20770;-66
2022/11/28 07:10:44;;;;;;;9.27;7.22;;;;;;;;;;4992218;28;20224;-65
2022/11/28 07:13:10;;;;;;;8.75;6.03;;;;;;;;;;4983729;28;20232;-65
2022/11/28 07:15:35;;;;;;;8.40;6.55;;;;;;;;;;4984032;28;20220;-65
2022/11/28 07:18:00;;;;;;;10.43;7.72;;;;;;;;;;4982445;28;20225;-66
2022/11/28 07:20:25;;;;;;;10.43;6.85;;;;;;;;;;4983923;28;20275;-65
2022/11/28 07:22:51;;;;;;;9.13;6.53;;;;;;;;;;4980148;28;20672;-65
2022/11/28 07:25:16;;;;;;;11.37;9.20;;;;;;;;;;4975141;28;20276;-65
2022/11/28 07:27:41;;;;;;;10.63;8.43;;;;;;;;;;4975368;28;20628;-65
2022/11/28 07:30:07;;;;;;;7.97;6.05;;;;;;;;;;4978510;28;20263;-65
2022/11/28 07:32:32;;;;;;;9.20;6.80;;;;;;;;;;5000228;28;20270;-65
2022/11/28 07:34:58;;;;;;;8.63;6.40;;;;;;;;;;5003001;28;20271;-65
2022/11/28 07:37:23;;;;;;;9.98;6.63;;;;;;;;;;5001808;28;20248;-66
2022/11/28 07:39:48;;;;;;;8.40;6.38;;;;;;;;;;4995312;28;20217;-66
2022/11/28 07:42:14;;;;;;;10.18;6.90;;;;;;;;;;4983058;28;20275;-66
2022/11/28 07:44:39;;;;;;;10.55;6.88;;;;;;;;;;4982985;28;20233;-65
2022/11/28 07:47:04;;;;;;;8.67;6.80;;;;;;;;;;4974844;28;20306;-65
2022/11/28 07:49:29;;;;;;;9.15;6.93;;;;;;;;;;4975111;28;20216;-65
2022/11/28 07:51:55;;;;;;;9.68;6.40;;;;;;;;;;4982107;28;20245;-65
2022/11/28 07:54:20;;;;;;;10.20;6.27;;;;;;;;;;5000794;28;20220;-65
2022/11/28 07:56:45;;;;;;;9.23;7.65;;;;;;;;;;5005870;28;20212;-65
2022/11/28 07:59:11;;;;;;;10.52;7.30;;;;;;;;;;4991369;28;20209;-65
2022/11/28 08:01:36;;;;;;;12.90;9.57;;;;;;;;;;4990492;28;20452;-66
2022/11/28 08:04:02;;;;;;;11.50;8.40;;;;;;;;;;4992201;28;20433;-65
2022/11/28 08:06:28;;;;;;;11.07;7.72;;;;;;;;;;4997377;28;20216;-65
2022/11/28 08:08:53;;;;;;;13.00;10.40;;;;;;;;;;4999885;28;20441;-65
2022/11/28 08:11:19;;;;;;;10.95;8.27;;;;;;;;;;4996106;28;20280;-65
2022/11/28 08:13:45;;;;;;;10.98;8.30;;;;;;;;;;5004000;28;20220;-66
2022/11/28 08:16:12;;;;;;;9.45;7.68;;;;;;;;;;4995483;28;20583;-66
2022/11/28 08:18:37;;;;;;;10.57;8.20;;;;;;;;;;4992259;28;20668;-66
2022/11/28 08:21:06;;;;;;;10.38;7.43;;;;;;;;;;5000817;28;20312;-67
2022/11/28 08:23:32;;;;;;;11.93;8.75;;;;;;;;;;4991847;28;20217;-67
2022/11/28 08:25:58;;;;;;;11.23;8.60;;;;;;;;;;4993942;28;20232;-68
2022/11/28 08:28:24;;;;;;;10.18;7.85;;;;;;;;;;5001446;28;20248;-67
2022/11/28 08:30:49;;;;;;;9.70;8.02;;;;;;;;;;5002773;28;20452;-67
2022/11/28 08:33:14;;;;;;;11.67;9.90;;;;;;;;;;5005601;28;21059;-66
2022/11/28 08:35:40;;;;;;;10.60;7.93;;;;;;;;;;4995946;28;20589;-67
2022/11/28 08:38:05;;;;;;;10.38;7.30;;;;;;;;;;4995732;28;20265;-66
2022/11/28 08:40:31;;;;;;;9.93;7.82;;;;;;;;;;5000493;28;20209;-67
2022/11/28 08:42:57;;;;;;;9.23;7.68;;;;;;;;;;4975986;28;20210;-66
2022/11/28 08:45:22;;;;;;;8.80;6.60;;;;;;;;;;4983308;28;20229;-66
2022/11/28 08:47:47;;;;;;;7.68;6.20;;;;;;;;;;5006654;28;20212;-66
2022/11/28 08:50:13;;;;;;;9.48;6.28;;;;;;;;;;5014543;28;20262;-65
2022/11/28 08:52:38;;;;;;;7.43;5.88;;;;;;;;;;5015838;28;20212;-66
2022/11/28 08:55:03;;;;;;;7.43;5.50;;;;;;;;;;5014854;28;20578;-65
2022/11/28 08:57:29;;;;;;;6.70;4.72;;;;;;;;;;5007249;28;20217;-65
2022/11/28 08:59:54;;;;;;;6.20;4.68;;;;;;;;;;5011292;28;20232;-65
2022/11/28 09:02:19;;;;;;;7.32;5.10;;;;;;;;;;5011988;28;20377;-65
2022/11/28 09:04:44;;;;;;;6.13;4.70;;;;;;;;;;5004458;28;20228;-65
2022/11/28 09:07:11;;;;;;;8.75;6.57;;;;;;;;;;5015207;28;20216;-65
2022/11/28 09:09:36;;;;;;;6.95;4.80;;;;;;;;;;4997231;28;20217;-65
2022/11/28 09:12:01;;;;;;;6.63;5.03;;;;;;;;;;4993216;28;20220;-64
2022/11/28 09:14:26;;;;;;;6.43;4.90;;;;;;;;;;4995687;28;20216;-66
2022/11/28 09:16:52;;;;;;;6.47;5.35;;;;;;;;;;5012575;28;20271;-66
2022/11/28 09:19:17;;;;;;;7.63;4.63;;;;;;;;;;5013109;28;20256;-66
2022/11/28 09:21:42;;;;;;;7.10;5.18;;;;;;;;;;4980538;28;20214;-66
2022/11/28 09:24:08;;;;;;;7.72;5.20;;;;;;;;;;4991146;28;20746;-66
2022/11/28 09:26:33;;;;;;;8.23;4.90;;;;;;;;;;4995163;28;20206;-66
2022/11/28 09:28:58;;;;;;;7.45;5.15;;;;;;;;;;4995730;28;20217;-66
2022/11/28 09:31:24;;;;;;;7.85;5.35;;;;;;;;;;4994160;28;20602;-66
2022/11/28 09:33:49;;;;;;;8.80;5.22;;;;;;;;;;4995510;28;20221;-66
2022/11/28 09:36:17;;;;;;;7.22;5.43;;;;;;;;;;4994932;28;20216;-66
2022/11/28 09:38:42;;;;;;;8.00;5.38;;;;;;;;;;4979732;28;20217;-66
2022/11/28 09:41:35;;;;;;;6.80;4.95;;;;;;;;;;4992040;28;20690;-66
2022/11/28 09:44:08;;;;;;;6.97;4.88;;;;;;;;;;4994993;28;20217;-66
2022/11/28 09:46:33;;;;;;;8.48;5.57;;;;;;;;;;4988727;28;20228;-66
2022/11/28 09:49:00;;;;;;;8.18;5.60;;;;;;;;;;5007015;28;20220;-66
2022/11/28 09:51:25;;;;;;;8.85;6.20;;;;;;;;;;5014295;28;20208;-66
2022/11/28 09:53:58;;;;;;;8.82;5.38;;;;;;;;;;5005804;28;20597;-66
2022/11/28 09:56:24;;;;;;;8.88;6.00;;;;;;;;;;4988683;28;20228;-65
2022/11/28 09:58:50;;;;;;;8.50;6.15;;;;;;;;;;4970506;28;20210;-66
2022/11/28 10:01:25;;;;;;;8.35;5.78;;;;;;;;;;4963471;28;20229;-66
2022/11/28 10:03:56;;;;;;;8.50;5.57;;;;;;;;;;4964424;28;20213;-65
2022/11/28 10:06:25;;;;;;;8.20;6.07;;;;;;;;;;4984693;28;20221;-65
2022/11/28 10:08:51;;;;;;;8.82;6.40;;;;;;;;;;4979575;28;20220;-66
2022/11/28 10:11:29;;;;;;;9.60;6.53;;;;;;;;;;4968760;28;20225;-66
2022/11/28 10:13:59;;;;;;;7.75;5.75;;;;;;;;;;4972727;28;20217;-64
2022/11/28 10:16:26;;;;;;;9.73;6.57;;;;;;;;;;4983794;28;20229;-66
2022/11/28 10:18:55;;;;;;;7.95;6.05;;;;;;;;;;4986998;28;20296;-67
2022/11/28 10:21:23;;;;;;;9.05;6.38;;;;;;;;;;4980031;28;20217;-67
2022/11/28 10:23:49;;;;;;;8.23;6.25;;;;;;;;;;4979473;28;20213;-67
2022/11/28 10:26:25;;;;;;;8.57;6.28;;;;;;;;;;4980254;28;20283;-67
2022/11/28 10:28:50;;;;;;;7.53;5.80;;;;;;;;;;4978352;28;20217;-67
2022/11/28 10:31:16;;;;;;;7.97;5.75;;;;;;;;;;4984345;28;20220;-67
2022/11/28 10:33:43;;;;;;;8.52;6.55;;;;;;;;;;4969382;28;20968;-67
2022/11/28 10:36:12;;;;;;;8.25;5.93;;;;;;;;;;4984301;28;20692;-67
2022/11/28 10:38:37;;;;;;;6.65;5.00;;;;;;;;;;4987084;28;20209;-67
2022/11/28 10:41:05;;;;;;;8.38;5.43;;;;;;;;;;4969318;28;20229;-67
2022/11/28 10:43:37;;;;;;;6.63;5.00;;;;;;;;;;4978707;28;20218;-67
2022/11/28 10:46:06;;;;;;;7.30;4.88;;;;;;;;;;4968786;28;20320;-67
2022/11/28 10:48:38;;;;;;;9.00;5.20;;;;;;;;;;4978538;28;20213;-67
2022/11/28 10:51:11;;;;;;;7.05;5.10;;;;;;;;;;4974666;28;20210;-66
2022/11/28 10:53:40;;;;;;;7.90;5.75;;;;;;;;;;4968773;28;20216;-67
2022/11/28 10:56:11;;;;;;;6.63;5.13;;;;;;;;;;4967211;28;20222;-67
2022/11/28 10:58:40;;;;;;;7.20;5.40;;;;;;;;;;4986237;28;20213;-67
2022/11/28 11:01:05;;;;;;;5.72;4.80;;;;;;;;;;4968196;28;20775;-67
2022/11/28 11:03:31;;;;;;;6.95;5.15;;;;;;;;;;4968139;28;20213;-67
2022/11/28 11:05:56;;;;;;;9.40;5.20;;;;;;;;;;4976182;28;20316;-66
2022/11/28 11:08:24;;;;;;;8.18;5.00;;;;;;;;;;4969342;28;20237;-67
2022/11/28 11:10:58;;;;;;;8.43;6.22;;;;;;;;;;4977460;28;20205;-67
2022/11/28 11:13:25;;;;;;;8.23;6.00;;;;;;;;;;4983211;28;20218;-66
2022/11/28 11:15:53;;;;;;;7.72;5.20;;;;;;;;;;4985970;28;20300;-66
2022/11/28 11:18:23;;;;;;;8.95;5.35;;;;;;;;;;4984650;28;20306;-66
2022/11/28 11:20:48;;;;;;;8.27;5.25;;;;;;;;;;4987505;28;20213;-66
2022/11/28 11:23:17;;;;;;;8.80;6.63;;;;;;;;;;4985725;28;20240;-66
2022/11/28 11:25:45;;;;;;;8.30;5.45;;;;;;;;;;4975682;28;20320;-66
2022/11/28 11:28:10;;;;;;;8.30;5.70;;;;;;;;;;4965556;28;20295;-66
2022/11/28 11:30:41;;;;;;;8.20;5.93;;;;;;;;;;4976013;28;20307;-66
2022/11/28 11:33:12;;;;;;;9.07;6.38;;;;;;;;;;4978134;28;20972;-66
2022/11/28 11:35:42;;;;;;;10.10;6.05;;;;;;;;;;4981478;28;20217;-66
2022/11/28 11:38:13;;;;;;;8.98;6.55;;;;;;;;;;4981076;28;20213;-66
2022/11/28 11:40:38;;;;;;;10.13;6.50;;;;;;;;;;4969258;28;20249;-66
2022/11/28 11:43:06;;;;;;;10.18;5.97;;;;;;;;;;4967636;28;20214;-67
2022/11/28 11:45:33;;;;;;;9.23;6.28;;;;;;;;;;4966504;28;20605;-66
2022/11/28 11:47:58;;;;;;;9.13;6.40;;;;;;;;;;4969645;28;20210;-66
2022/11/28 11:50:24;;;;;;;8.85;6.30;;;;;;;;;;4965877;28;20560;-66
2022/11/28 11:52:59;;;;;;;10.55;6.65;;;;;;;;;;4961248;28;20217;-66
2022/11/28 11:55:27;;;;;;;8.73;6.40;;;;;;;;;;4978076;28;20212;-66
2022/11/28 11:57:52;;;;;;;11.55;7.82;;;;;;;;;;4979990;28;20971;-67
2022/11/28 12:00:19;;;;;;;12.55;7.80;;;;;;;;;;4984752;28;20244;-66
2022/11/28 12:02:49;;;;;;;11.00;7.13;;;;;;;;;;4973030;28;20234;-68
2022/11/28 12:05:15;;;;;;;12.00;8.00;;;;;;;;;;4973302;28;20228;-67
2022/11/28 12:07:48;;;;;;;12.38;7.68;;;;;;;;;;4990673;28;20611;-66
2022/11/28 12:10:15;;;;;;;11.10;8.73;;;;;;;;;;4991071;28;20256;-66
2022/11/28 12:12:41;;;;;;;11.77;7.80;;;;;;;;;;4990998;28;20209;-65
2022/11/28 12:15:11;;;;;;;11.65;7.60;;;;;;;;;;4991727;28;20750;-63
2022/11/28 12:17:50;;;;;;;10.15;6.75;;;;;;;;;;5001731;28;20215;-64
2022/11/28 12:20:30;;;;;;;11.18;8.10;;;;;;;;;;4990011;28;20240;-68
2022/11/28 12:22:56;;;;;;;10.65;7.40;;;;;;;;;;4999449;28;20204;-66
2022/11/28 12:25:24;;;;;;;10.57;7.03;;;;;;;;;;5000417;28;20697;-68
2022/11/28 12:27:49;;;;;;;12.77;7.95;;;;;;;;;;4988865;28;20267;-68
2022/11/28 12:30:23;;;;;;;10.57;7.38;;;;;;;;;;4985012;28;20206;-66
2022/11/28 12:33:03;;;;;;;10.30;7.82;;;;;;;;;;4991399;28;20213;-66
2022/11/28 12:35:35;;;;;;;11.63;7.80;;;;;;;;;;5010024;28;20578;-67
2022/11/28 12:38:01;;;;;;;11.05;7.60;;;;;;;;;;5012082;28;20266;-66
2022/11/28 12:40:35;;;;;;;12.80;7.57;;;;;;;;;;5017116;28;20218;-67
2022/11/28 12:43:01;;;;;;;11.88;8.57;;;;;;;;;;4981005;28;20717;-66
2022/11/28 12:45:35;;;;;;;11.95;8.57;;;;;;;;;;4987743;28;20305;-67
2022/11/28 12:48:07;;;;;;;12.98;8.65;;;;;;;;;;4970905;28;20246;-66
2022/11/28 12:50:33;;;;;;;11.43;8.15;;;;;;;;;;4978595;28;20593;-68
2022/11/28 12:53:09;;;;;;;11.57;8.70;;;;;;;;;;4991387;28;20217;-66
2022/11/28 12:55:42;;;;;;;13.95;8.65;;;;;;;;;;4992998;28;20240;-67
2022/11/28 12:58:12;;;;;;;10.80;8.27;;;;;;;;;;5004880;28;20282;-71
2022/11/28 13:00:48;;;;;;;11.90;8.48;;;;;;;;;;4983714;28;20226;-67
2022/11/28 13:03:30;;;;;;;12.25;8.30;;;;;;;;;;4976416;28;20653;-67
2022/11/28 13:06:00;;;;;;;12.48;9.27;;;;;;;;;;4992554;28;20301;-67
2022/11/28 13:08:32;;;;;;;11.85;8.40;;;;;;;;;;4975750;28;20304;-67
2022/11/28 13:10:57;;;;;;;12.95;9.43;;;;;;;;;;4976346;28;20212;-67
2022/11/28 13:13:23;;;;;;;12.15;9.45;;;;;;;;;;4975770;28;20214;-67
2022/11/28 13:15:52;;;;;;;11.48;8.68;;;;;;;;;;4977539;28;20685;-67
2022/11/28 13:18:21;;;;;;;11.13;8.57;;;;;;;;;;4973715;28;20301;-67
2022/11/28 13:20:50;;;;;;;15.85;9.77;;;;;;;;;;4976552;28;20727;-67
2022/11/28 13:23:24;;;;;;;11.55;8.55;;;;;;;;;;4973488;28;20297;-68
2022/11/28 13:25:52;;;;;;;12.40;8.52;;;;;;;;;;4975050;28;20228;-67
2022/11/28 13:28:21;;;;;;;11.75;8.45;;;;;;;;;;4974583;28;20673;-67
2022/11/28 13:30:49;;;;;;;12.73;8.75;;;;;;;;;;4974037;28;20218;-67
2022/11/28 13:33:35;;;;;;;11.95;9.10;;;;;;;;;;4974258;28;20220;-67
2022/11/28 13:36:01;;;;;;;14.63;9.50;;;;;;;;;;4975633;28;20240;-66
2022/11/28 13:38:31;;;;;;;11.98;8.85;;;;;;;;;;4973651;28;20296;-67
2022/11/28 13:41:00;;;;;;;13.68;10.07;;;;;;;;;;4974738;28;20217;-67
2022/11/28 13:43:44;;;;;;;13.88;9.65;;;;;;;;;;4994995;28;20209;-67
2022/11/28 13:46:09;;;;;;;13.40;9.18;;;;;;;;;;4985767;28;20233;-66
2022/11/28 13:48:35;;;;;;;12.15;9.07;;;;;;;;;;4990494;28;20360;-67
2022/11/28 13:51:11;;;;;;;11.77;9.25;;;;;;;;;;4991838;28;20292;-65
2022/11/28 13:53:36;;;;;;;12.80;9.10;;;;;;;;;;4988300;28;20213;-67
2022/11/28 13:56:01;;;;;;;12.07;8.65;;;;;;;;;;4984850;28;20219;-66
2022/11/28 13:58:28;;;;;;;13.35;9.30;;;;;;;;;;4986296;28;20699;-67
2022/11/28 14:01:02;;;;;;;15.13;10.27;;;;;;;;;;5001692;28;20225;-68
2022/11/28 14:03:27;;;;;;;14.25;9.20;;;;;;;;;;5001591;28;20216;-67
2022/11/28 14:05:53;;;;;;;19.90;13.90;;;;;;;;;;4999983;28;20230;-67
2022/11/28 14:08:33;;;;;;;16.30;11.55;;;;;;;;;;5004675;28;20683;-67
2022/11/28 14:11:01;;;;;;;16.08;12.40;;;;;;;;;;4998139;28;20201;-67
2022/11/28 14:13:27;;;;;;;46.88;29.98;;;;;;;;;;4980743;28;20288;-68
2022/11/28 14:15:59;;;;;;;17.00;12.93;;;;;;;;;;4975230;28;20561;-67
2022/11/28 14:18:24;;;;;;;14.07;10.00;;;;;;;;;;4974942;28;20288;-67
2022/11/28 14:20:57;;;;;;;38.33;26.20;;;;;;;;;;4974682;28;20221;-67
2022/11/28 14:23:26;;;;;;;16.65;12.75;;;;;;;;;;4973373;28;20217;-67
2022/11/28 14:25:51;;;;;;;15.10;11.20;;;;;;;;;;4975208;28;20253;-67
2022/11/28 14:28:25;;;;;;;13.32;10.35;;;;;;;;;;4972648;28;20249;-67
2022/11/28 14:30:50;;;;;;;13.95;9.35;;;;;;;;;;4974004;28;20229;-67
2022/11/28 14:33:21;;;;;;;14.43;9.50;;;;;;;;;;4974422;28;20579;-66
2022/11/28 14:35:49;;;;;;;19.45;12.35;;;;;;;;;;4973723;28;20205;-67
2022/11/28 14:38:34;;;;;;;13.27;9.98;;;;;;;;;;4974531;28;20224;-67